Time;durP1;ratioP1;P1;durP2;ratioP2;P2;SDS_P1;SDS_P2;PMS_P1;PMS_P2;Temp;Humidity;BMP_temperature;BMP_pressure;BME280_temperature;BME280_humidity;BME280_pressure;Samples;Min_cycle;Max_cycle;Signal;HPM_P1;HPM_P2
2023/07/28 00:02:05;;;;;;;6.23;3.97;;;17.50;30.20;;;;;;5029652;28;20470;-67
2023/07/28 00:04:32;;;;;;;6.83;4.50;;;17.50;30.20;;;;;;5028908;28;21010;-67
2023/07/28 00:06:59;;;;;;;9.13;5.20;;;17.50;30.20;;;;;;5024951;28;20463;-68
2023/07/28 00:09:26;;;;;;;7.87;4.67;;;17.50;30.10;;;;;;5022480;28;20979;-67
2023/07/28 00:11:52;;;;;;;6.67;4.47;;;17.50;30.20;;;;;;5025628;23;20902;-70
2023/07/28 00:14:19;;;;;;;9.23;5.17;;;17.40;30.10;;;;;;5005084;28;20475;-70
2023/07/28 00:16:47;;;;;;;6.23;4.33;;;17.40;30.10;;;;;;5007954;28;20463;-70
2023/07/28 00:19:14;;;;;;;7.90;4.33;;;17.40;30.20;;;;;;5008627;28;21003;-69
2023/07/28 00:21:40;;;;;;;7.23;4.13;;;17.40;30.10;;;;;;5009047;28;20491;-69
2023/07/28 00:24:07;;;;;;;8.80;5.07;;;17.40;30.10;;;;;;5007504;28;20485;-69
2023/07/28 00:26:34;;;;;;;7.40;4.50;;;17.40;30.20;;;;;;5002870;28;20463;-68
2023/07/28 00:29:01;;;;;;;7.40;5.10;;;17.30;30.20;;;;;;5008670;28;20478;-69
2023/07/28 00:31:27;;;;;;;7.47;4.10;;;17.30;30.30;;;;;;4998837;28;20470;-69
2023/07/28 00:33:55;;;;;;;7.13;4.70;;;17.30;30.50;;;;;;4982028;28;20482;-69
2023/07/28 00:36:22;;;;;;;6.57;4.67;;;17.30;30.50;;;;;;4983036;28;20996;-69
2023/07/28 00:38:49;;;;;;;7.67;4.20;;;17.20;30.50;;;;;;4989790;28;20822;-69
2023/07/28 00:41:15;;;;;;;10.43;5.33;;;17.20;30.50;;;;;;4984064;28;20493;-68
2023/07/28 00:43:42;;;;;;;7.93;5.27;;;17.30;30.50;;;;;;4979643;28;20579;-70
2023/07/28 00:46:10;;;;;;;7.60;4.83;;;17.30;30.40;;;;;;4987567;28;20933;-68
2023/07/28 00:48:37;;;;;;;7.73;4.90;;;17.20;30.40;;;;;;4979736;28;20466;-69
2023/07/28 00:51:06;;;;;;;9.60;5.63;;;17.20;30.50;;;;;;4978808;28;20469;-70
2023/07/28 00:53:33;;;;;;;6.80;4.93;;;17.20;30.60;;;;;;4980761;28;20491;-68
2023/07/28 00:56:01;;;;;;;8.67;5.10;;;17.20;30.60;;;;;;4978935;28;20465;-68
2023/07/28 00:58:28;;;;;;;7.57;4.30;;;17.20;30.70;;;;;;4983385;28;20492;-68
2023/07/28 01:00:55;;;;;;;6.90;4.63;;;17.10;30.80;;;;;;4979045;28;20476;-70
2023/07/28 01:03:22;;;;;;;6.50;4.70;;;17.10;30.80;;;;;;4986881;28;20488;-68
2023/07/28 01:05:59;;;;;;;7.33;4.80;;;17.10;30.80;;;;;;4989232;28;20463;-68
2023/07/28 01:08:33;;;;;;;7.80;4.80;;;17.10;31.00;;;;;;4983378;28;20980;-68
2023/07/28 01:11:00;;;;;;;8.40;4.80;;;17.10;31.10;;;;;;4985958;28;20466;-68
2023/07/28 01:13:27;;;;;;;9.20;5.40;;;17.00;31.10;;;;;;4983134;28;20464;-70
2023/07/28 01:15:54;;;;;;;8.77;4.63;;;17.00;31.00;;;;;;4980758;28;20469;-68
2023/07/28 01:18:21;;;;;;;7.93;5.50;;;17.00;31.00;;;;;;4988712;28;20461;-68
2023/07/28 01:20:55;;;;;;;7.90;5.10;;;17.00;31.10;;;;;;4989992;28;20467;-70
2023/07/28 01:23:32;;;;;;;7.83;4.70;;;16.90;31.20;;;;;;4989946;28;20575;-68
2023/07/28 01:26:06;;;;;;;7.67;5.57;;;16.90;31.30;;;;;;4988313;28;20464;-68
2023/07/28 01:28:35;;;;;;;7.93;5.10;;;16.90;31.30;;;;;;4984525;28;20457;-70
2023/07/28 01:31:03;;;;;;;9.70;4.93;;;16.90;31.20;;;;;;4995964;28;20837;-67
2023/07/28 01:33:30;;;;;;;8.07;5.90;;;16.90;31.40;;;;;;5004660;28;20476;-68
2023/07/28 01:35:58;;;;;;;7.80;5.13;;;16.80;31.40;;;;;;5008349;28;20460;-70
2023/07/28 01:38:25;;;;;;;7.00;5.10;;;16.80;31.40;;;;;;5006971;28;20471;-70
2023/07/28 01:40:51;;;;;;;7.73;5.00;;;16.80;31.50;;;;;;5005475;28;20917;-69
2023/07/28 01:43:18;;;;;;;8.27;4.13;;;16.80;31.50;;;;;;5001656;28;20761;-70
2023/07/28 01:45:46;;;;;;;9.10;5.90;;;16.80;31.60;;;;;;5008602;28;20459;-68
2023/07/28 01:48:13;;;;;;;7.73;5.50;;;16.70;31.60;;;;;;5007026;28;20832;-68
2023/07/28 01:50:39;;;;;;;8.00;4.90;;;16.70;31.70;;;;;;5007373;28;20462;-68
2023/07/28 01:53:07;;;;;;;7.60;5.27;;;16.70;31.70;;;;;;5000411;28;20968;-70
2023/07/28 01:55:34;;;;;;;8.40;5.40;;;16.70;31.70;;;;;;5003169;28;20456;-70
2023/07/28 01:58:02;;;;;;;7.67;5.07;;;16.70;31.60;;;;;;5007656;28;20468;-69
2023/07/28 02:00:29;;;;;;;7.93;4.63;;;16.70;31.60;;;;;;5001807;28;20464;-68
2023/07/28 02:02:58;;;;;;;12.00;5.43;;;16.60;31.40;;;;;;5007666;28;20487;-69
2023/07/28 02:05:25;;;;;;;7.70;5.17;;;16.70;31.50;;;;;;5000984;28;20479;-69
2023/07/28 02:07:52;;;;;;;5.90;4.30;;;16.60;31.40;;;;;;5007400;28;20464;-68
2023/07/28 02:10:19;;;;;;;12.70;5.30;;;16.60;31.40;;;;;;5001958;28;20468;-68
2023/07/28 02:12:46;;;;;;;9.13;4.40;;;16.60;31.40;;;;;;5006395;28;20733;-68
2023/07/28 02:15:12;;;;;;;10.43;5.40;;;16.60;31.40;;;;;;4998764;28;20495;-68
2023/07/28 02:17:39;;;;;;;9.00;4.70;;;16.60;31.60;;;;;;5007152;28;20487;-68
2023/07/28 02:20:10;;;;;;;8.17;5.27;;;16.50;31.70;;;;;;5007763;28;20456;-68
2023/07/28 02:22:37;;;;;;;8.67;4.70;;;16.50;31.70;;;;;;5002957;28;20528;-68
2023/07/28 02:25:04;;;;;;;7.73;4.97;;;16.50;31.80;;;;;;5007065;28;20488;-68
2023/07/28 02:27:31;;;;;;;9.80;4.50;;;16.40;31.80;;;;;;5007355;28;20489;-68
2023/07/28 02:29:58;;;;;;;7.80;4.80;;;16.50;31.90;;;;;;5007281;28;20812;-69
2023/07/28 02:32:24;;;;;;;8.20;5.37;;;16.50;32.10;;;;;;5007060;28;20460;-69
2023/07/28 02:34:51;;;;;;;7.50;4.60;;;16.40;32.20;;;;;;5003606;28;20491;-68
2023/07/28 02:37:19;;;;;;;7.83;4.77;;;16.40;32.20;;;;;;5006826;28;20471;-68
2023/07/28 02:39:46;;;;;;;10.20;5.33;;;16.40;32.20;;;;;;5005423;28;20502;-68
2023/07/28 02:42:13;;;;;;;8.80;5.43;;;16.40;32.40;;;;;;5006994;28;20495;-68
2023/07/28 02:44:40;;;;;;;8.53;4.90;;;16.40;32.50;;;;;;5002401;28;20901;-68
2023/07/28 02:47:07;;;;;;;7.00;4.30;;;16.30;32.50;;;;;;5006873;28;20456;-68
2023/07/28 02:49:34;;;;;;;8.77;5.20;;;16.30;32.70;;;;;;5003854;28;21000;-69
2023/07/28 02:52:02;;;;;;;7.13;5.00;;;16.30;32.80;;;;;;5005875;28;20465;-69
2023/07/28 02:54:30;;;;;;;9.10;5.03;;;16.30;32.90;;;;;;5007194;28;20487;-69
2023/07/28 02:56:57;;;;;;;10.60;4.53;;;16.30;33.00;;;;;;5007290;28;20464;-68
2023/07/28 02:59:24;;;;;;;10.80;5.20;;;16.30;33.10;;;;;;5006684;28;20855;-68
2023/07/28 03:01:51;;;;;;;7.13;4.83;;;16.30;33.20;;;;;;5001954;28;20468;-69
2023/07/28 03:04:19;;;;;;;9.50;5.40;;;16.30;33.20;;;;;;5008717;28;20507;-69
2023/07/28 03:06:46;;;;;;;6.90;4.37;;;16.30;33.30;;;;;;5010987;28;20506;-68
2023/07/28 03:09:13;;;;;;;9.03;5.10;;;16.40;33.50;;;;;;5011175;28;20463;-68
2023/07/28 03:11:42;;;;;;;8.27;4.90;;;16.40;33.60;;;;;;5011823;28;20468;-68
2023/07/28 03:14:09;;;;;;;9.27;5.03;;;16.40;33.50;;;;;;5005218;28;20847;-69
2023/07/28 03:16:35;;;;;;;7.83;5.40;;;16.40;33.60;;;;;;5005442;28;20508;-68
2023/07/28 03:19:02;;;;;;;8.50;5.63;;;16.40;33.50;;;;;;5005783;28;20474;-68
2023/07/28 03:21:30;;;;;;;7.63;5.87;;;16.40;33.50;;;;;;5000615;28;20468;-68
2023/07/28 03:23:57;;;;;;;9.13;5.77;;;16.40;33.50;;;;;;5009222;28;20484;-68
2023/07/28 03:26:24;;;;;;;8.67;5.17;;;16.40;33.40;;;;;;5015036;28;20479;-68
2023/07/28 03:28:52;;;;;;;10.43;6.17;;;16.40;33.30;;;;;;5008817;28;20459;-69
2023/07/28 03:31:18;;;;;;;7.20;4.73;;;16.40;33.30;;;;;;5008103;28;20472;-69
2023/07/28 03:33:45;;;;;;;8.20;5.70;;;16.40;33.30;;;;;;5013370;28;20471;-68
2023/07/28 03:36:12;;;;;;;8.00;5.63;;;16.40;33.40;;;;;;5009948;28;21827;-70
2023/07/28 03:38:38;;;;;;;9.93;5.47;;;16.30;33.50;;;;;;5007978;28;20467;-70
2023/07/28 03:41:06;;;;;;;12.67;5.33;;;16.30;33.70;;;;;;5009685;28;20475;-73
2023/07/28 03:43:33;;;;;;;9.50;5.23;;;16.30;33.90;;;;;;5007727;28;20518;-69
2023/07/28 03:46:01;;;;;;;7.63;5.80;;;16.30;34.00;;;;;;5011049;28;20459;-69
2023/07/28 03:48:28;;;;;;;8.47;5.23;;;16.30;33.90;;;;;;5008874;28;20470;-69
2023/07/28 03:50:55;;;;;;;9.00;5.70;;;16.30;34.00;;;;;;5007273;28;20995;-69
2023/07/28 03:53:21;;;;;;;7.90;5.30;;;16.30;34.00;;;;;;5009394;28;20460;-69
2023/07/28 03:55:49;;;;;;;7.63;5.10;;;16.20;34.10;;;;;;5012658;28;20465;-69
2023/07/28 03:58:16;;;;;;;8.80;5.30;;;16.30;34.10;;;;;;5009628;28;20491;-69
2023/07/28 04:00:42;;;;;;;8.60;5.83;;;16.30;34.20;;;;;;5007752;28;20471;-68
2023/07/28 04:03:10;;;;;;;8.90;5.43;;;16.30;34.30;;;;;;5002985;28;20518;-68
2023/07/28 04:05:37;;;;;;;9.70;5.83;;;16.30;34.40;;;;;;5005596;28;20467;-68
2023/07/28 04:08:05;;;;;;;9.37;6.10;;;16.30;34.40;;;;;;5009690;28;20503;-68
2023/07/28 04:10:31;;;;;;;7.87;5.63;;;16.30;34.50;;;;;;5004554;28;20957;-68
2023/07/28 04:12:58;;;;;;;7.73;5.30;;;16.30;34.50;;;;;;5005844;28;20476;-69
2023/07/28 04:15:25;;;;;;;9.73;5.87;;;16.40;34.50;;;;;;5003875;28;20511;-70
2023/07/28 04:17:51;;;;;;;7.90;5.77;;;16.40;34.60;;;;;;5008777;28;20463;-68
2023/07/28 04:20:19;;;;;;;13.67;5.93;;;16.40;34.60;;;;;;5001588;28;20468;-69
2023/07/28 04:22:47;;;;;;;9.00;5.20;;;16.50;34.70;;;;;;5003869;28;20488;-68
2023/07/28 04:25:14;;;;;;;7.63;5.60;;;16.50;34.70;;;;;;5002480;28;20558;-68
2023/07/28 04:27:41;;;;;;;8.50;5.10;;;16.50;34.70;;;;;;4999186;28;20496;-68
2023/07/28 04:30:08;;;;;;;7.50;4.93;;;16.60;34.70;;;;;;5005263;28;20975;-68
2023/07/28 04:32:35;;;;;;;8.03;4.87;;;16.60;34.80;;;;;;5001151;28;20475;-68
2023/07/28 04:35:01;;;;;;;6.70;4.57;;;16.60;34.50;;;;;;5005584;28;20980;-69
2023/07/28 04:37:30;;;;;;;8.60;4.87;;;16.70;34.50;;;;;;5003673;28;20482;-68
2023/07/28 04:39:56;;;;;;;7.20;5.50;;;16.70;34.50;;;;;;5007387;28;20471;-68
2023/07/28 04:42:23;;;;;;;9.00;5.47;;;16.80;34.30;;;;;;5006894;28;20584;-69
2023/07/28 04:44:50;;;;;;;8.17;5.57;;;16.80;34.10;;;;;;5002480;28;20492;-68
2023/07/28 04:47:16;;;;;;;7.90;5.57;;;16.90;34.30;;;;;;5007024;28;20482;-68
2023/07/28 04:49:43;;;;;;;9.70;5.70;;;16.90;34.40;;;;;;5004058;28;21349;-68
2023/07/28 04:52:10;;;;;;;8.67;5.53;;;17.00;34.10;;;;;;5007502;28;20491;-69
2023/07/28 04:54:38;;;;;;;7.40;4.90;;;17.00;34.10;;;;;;5004886;28;20483;-68
2023/07/28 04:57:05;;;;;;;7.60;4.40;;;17.10;34.00;;;;;;5004029;28;20479;-69
2023/07/28 04:59:32;;;;;;;7.20;5.07;;;17.20;33.40;;;;;;5001149;28;20482;-70
2023/07/28 05:01:59;;;;;;;8.17;5.17;;;17.40;33.50;;;;;;5004917;28;20483;-68
2023/07/28 05:04:25;;;;;;;8.20;5.50;;;17.70;33.00;;;;;;5002909;28;20491;-68
2023/07/28 05:06:52;;;;;;;8.00;5.20;;;18.50;32.30;;;;;;5007288;28;20475;-69
2023/07/28 05:09:19;;;;;;;9.13;4.63;;;20.10;27.40;;;;;;5006256;28;20468;-68
2023/07/28 05:11:47;;;;;;;10.60;4.33;;;21.70;22.20;;;;;;5004186;28;21762;-69
2023/07/28 05:14:13;;;;;;;6.87;3.67;;;23.10;18.40;;;;;;5004987;28;20480;-69
2023/07/28 05:16:41;;;;;;;6.50;4.77;;;24.30;15.50;;;;;;5005769;28;20464;-69
2023/07/28 05:19:08;;;;;;;6.13;3.57;;;25.50;12.10;;;;;;5004814;28;20567;-69
2023/07/28 05:21:34;;;;;;;6.30;3.43;;;26.60;9.50;;;;;;4999783;28;20499;-69
2023/07/28 05:24:01;;;;;;;5.57;3.43;;;27.60;7.10;;;;;;5003414;28;20480;-69
2023/07/28 05:26:28;;;;;;;7.30;4.17;;;28.60;4.90;;;;;;5003677;28;20476;-69
2023/07/28 05:28:56;;;;;;;6.27;3.60;;;29.50;3.20;;;;;;5005406;28;20471;-70
2023/07/28 05:31:23;;;;;;;6.87;3.73;;;30.40;1.10;;;;;;5004364;28;20479;-69
2023/07/28 05:33:50;;;;;;;6.10;3.60;;;31.20;1.00;;;;;;5004573;28;20988;-70
2023/07/28 05:36:17;;;;;;;5.70;4.03;;;31.90;1.00;;;;;;5001194;28;21060;-73
2023/07/28 05:38:43;;;;;;;5.13;3.03;;;32.70;1.00;;;;;;5004079;28;20463;-71
2023/07/28 05:41:10;;;;;;;7.60;3.13;;;33.40;1.00;;;;;;5006467;28;20999;-70
2023/07/28 05:43:37;;;;;;;6.50;3.50;;;34.10;1.00;;;;;;4994850;28;20492;-70
2023/07/28 05:46:05;;;;;;;5.63;3.40;;;34.80;1.00;;;;;;4996398;28;20479;-71
2023/07/28 05:48:31;;;;;;;4.50;2.80;;;35.50;1.00;;;;;;4997634;28;20460;-69
2023/07/28 05:50:58;;;;;;;4.70;2.63;;;36.10;1.00;;;;;;5004220;28;20472;-70
2023/07/28 05:53:25;;;;;;;4.40;2.87;;;36.70;1.00;;;;;;5005319;28;20983;-70
2023/07/28 05:55:51;;;;;;;5.60;2.97;;;37.40;1.00;;;;;;5005656;28;20827;-70
2023/07/28 05:58:18;;;;;;;4.33;2.60;;;37.60;1.00;;;;;;5005413;28;20468;-69
2023/07/28 06:00:45;;;;;;;5.03;2.83;;;38.10;1.00;;;;;;5003126;28;20464;-69
2023/07/28 06:03:13;;;;;;;5.40;3.00;;;38.00;1.00;;;;;;5004960;28;20471;-70
2023/07/28 06:05:41;;;;;;;5.97;2.57;;;36.10;1.00;;;;;;5004018;28;20468;-70
2023/07/28 06:08:08;;;;;;;7.63;3.23;;;34.10;1.00;;;;;;5004098;28;20559;-70
2023/07/28 06:10:35;;;;;;;5.43;3.03;;;32.40;1.00;;;;;;5002256;28;20456;-70
2023/07/28 06:13:02;;;;;;;7.23;2.90;;;30.90;1.00;;;;;;5003342;28;20869;-69
2023/07/28 06:15:29;;;;;;;6.10;3.40;;;29.70;1.00;;;;;;5002654;28;20483;-70
2023/07/28 06:17:56;;;;;;;5.87;3.00;;;28.70;1.20;;;;;;5004489;28;20475;-70
2023/07/28 06:20:24;;;;;;;5.30;3.00;;;27.90;3.00;;;;;;5003997;28;20464;-70
2023/07/28 06:22:50;;;;;;;5.53;3.03;;;27.40;4.50;;;;;;5004172;28;20467;-69
2023/07/28 06:25:17;;;;;;;6.10;3.03;;;27.30;5.30;;;;;;4999240;28;20488;-70
2023/07/28 06:27:44;;;;;;;5.10;3.17;;;27.10;5.70;;;;;;5004332;28;20479;-70
2023/07/28 06:30:12;;;;;;;5.20;2.87;;;27.00;6.30;;;;;;5004672;28;20472;-69
2023/07/28 06:32:38;;;;;;;8.43;3.30;;;27.00;6.20;;;;;;5004301;28;21356;-69
2023/07/28 06:35:09;;;;;;;7.43;3.13;;;26.90;6.20;;;;;;5002051;28;20480;-69
2023/07/28 06:37:38;;;;;;;6.23;3.03;;;26.90;6.30;;;;;;5003662;28;20471;-69
2023/07/28 06:40:06;;;;;;;6.23;3.50;;;26.70;6.60;;;;;;5003702;28;20472;-69
2023/07/28 06:42:34;;;;;;;5.17;3.10;;;26.50;7.20;;;;;;5004177;28;20464;-69
2023/07/28 06:45:01;;;;;;;6.33;3.60;;;26.80;6.90;;;;;;5003533;28;20475;-69
2023/07/28 06:47:28;;;;;;;6.00;3.20;;;26.80;6.90;;;;;;5004498;28;20562;-69
2023/07/28 06:49:54;;;;;;;7.00;3.40;;;26.80;6.70;;;;;;5001506;28;20484;-69
2023/07/28 06:52:21;;;;;;;8.03;3.27;;;26.70;7.10;;;;;;5004361;28;20468;-69
2023/07/28 06:54:49;;;;;;;5.80;3.40;;;27.80;6.80;;;;;;5002589;28;20488;-69
2023/07/28 06:57:16;;;;;;;6.10;3.27;;;30.50;2.50;;;;;;5004381;28;20496;-69
2023/07/28 06:59:43;;;;;;;5.90;3.30;;;31.30;1.00;;;;;;5004375;28;20474;-70
2023/07/28 07:02:10;;;;;;;5.67;3.30;;;30.80;1.00;;;;;;5002058;28;21007;-70
2023/07/28 07:04:37;;;;;;;6.40;3.53;;;29.90;1.00;;;;;;5004555;28;21246;-70
2023/07/28 07:07:03;;;;;;;5.30;3.17;;;29.30;1.20;;;;;;4995149;28;20472;-73
2023/07/28 07:09:30;;;;;;;7.20;3.10;;;29.30;1.80;;;;;;5004755;28;21288;-71
2023/07/28 07:11:58;;;;;;;6.60;2.70;;;29.00;1.50;;;;;;4999707;28;20469;-71
2023/07/28 07:14:25;;;;;;;5.30;2.80;;;28.70;1.80;;;;;;4997947;28;20485;-70
2023/07/28 07:16:52;;;;;;;5.10;2.70;;;28.70;2.40;;;;;;5001539;28;20470;-72
2023/07/28 07:19:19;;;;;;;5.57;2.80;;;29.60;2.00;;;;;;5001316;28;20468;-72
2023/07/28 07:21:47;;;;;;;6.23;3.30;;;29.80;1.00;;;;;;5003788;28;20508;-74
2023/07/28 07:24:14;;;;;;;7.77;3.03;;;29.40;1.30;;;;;;5005427;28;20563;-70
2023/07/28 07:26:41;;;;;;;6.13;3.20;;;28.80;2.10;;;;;;5002003;28;20460;-70
2023/07/28 07:29:09;;;;;;;7.13;3.30;;;28.30;3.20;;;;;;5000281;28;20463;-69
2023/07/28 07:31:36;;;;;;;6.10;3.67;;;28.00;4.00;;;;;;4994759;28;21011;-70
2023/07/28 07:34:04;;;;;;;5.67;3.00;;;27.60;4.50;;;;;;4998408;28;20479;-70
2023/07/28 07:36:31;;;;;;;7.70;3.57;;;27.20;5.70;;;;;;5004670;28;21041;-70
2023/07/28 07:38:58;;;;;;;6.17;3.77;;;26.80;6.40;;;;;;5004789;28;20503;-69
2023/07/28 07:41:25;;;;;;;6.03;3.50;;;26.40;7.90;;;;;;5004131;28;20467;-69
2023/07/28 07:43:55;;;;;;;6.03;2.97;;;26.10;8.60;;;;;;5002493;28;21006;-69
2023/07/28 07:46:23;;;;;;;5.30;3.30;;;25.80;9.00;;;;;;5002673;28;20638;-69
2023/07/28 07:48:50;;;;;;;5.17;3.40;;;25.60;9.40;;;;;;5000222;28;20467;-69
2023/07/28 07:51:18;;;;;;;7.20;3.60;;;25.30;10.60;;;;;;5006177;28;20459;-70
2023/07/28 07:53:45;;;;;;;6.77;3.30;;;25.00;10.80;;;;;;5000291;28;20519;-69
2023/07/28 07:56:12;;;;;;;8.63;3.53;;;24.90;11.30;;;;;;5005607;28;20999;-69
2023/07/28 07:58:38;;;;;;;8.50;3.33;;;24.70;11.70;;;;;;4998554;28;20495;-70
2023/07/28 08:01:05;;;;;;;5.87;3.70;;;24.60;12.30;;;;;;5006780;28;20491;-69
2023/07/28 08:03:35;;;;;;;6.63;3.70;;;24.40;12.10;;;;;;5008923;28;20491;-69
2023/07/28 08:06:02;;;;;;;10.77;3.80;;;24.30;12.30;;;;;;5008876;28;20522;-69
2023/07/28 08:08:29;;;;;;;5.27;3.47;;;24.10;12.70;;;;;;5007567;28;20472;-69
2023/07/28 08:10:56;;;;;;;11.03;3.23;;;23.90;13.10;;;;;;5006722;28;21078;-70
2023/07/28 08:13:23;;;;;;;7.17;3.30;;;23.80;13.90;;;;;;5006938;28;20468;-70
2023/07/28 08:15:50;;;;;;;7.23;3.70;;;23.80;14.30;;;;;;5004347;28;20559;-70
2023/07/28 08:18:17;;;;;;;6.30;3.40;;;23.80;14.40;;;;;;5022363;22;20451;-66
2023/07/28 08:20:45;;;;;;;5.13;3.30;;;24.20;14.30;;;;;;5015840;28;20469;-65
2023/07/28 08:23:11;;;;;;;7.50;4.00;;;25.40;12.30;;;;;;5021938;28;20459;-66
2023/07/28 08:25:39;;;;;;;6.13;3.43;;;26.30;9.70;;;;;;5009371;28;20578;-67
2023/07/28 08:28:05;;;;;;;5.57;3.07;;;26.70;8.50;;;;;;5007840;28;20477;-65
2023/07/28 08:30:32;;;;;;;6.30;3.60;;;27.00;8.10;;;;;;5008297;28;20468;-65
2023/07/28 08:32:59;;;;;;;6.20;3.30;;;26.80;7.50;;;;;;5012262;28;20486;-66
2023/07/28 08:35:26;;;;;;;6.80;3.90;;;26.60;8.30;;;;;;5005877;28;20476;-66
2023/07/28 08:37:54;;;;;;;7.00;3.90;;;26.30;8.90;;;;;;5000643;28;20465;-66
2023/07/28 08:40:21;;;;;;;6.77;3.60;;;26.10;8.80;;;;;;5015750;28;20829;-65
2023/07/28 08:42:49;;;;;;;6.43;3.07;;;26.00;9.80;;;;;;5008701;28;20463;-66
2023/07/28 08:45:16;;;;;;;6.53;3.80;;;25.90;9.80;;;;;;5009265;28;20490;-65
2023/07/28 08:47:43;;;;;;;7.90;3.50;;;25.80;10.10;;;;;;5007527;28;20472;-65
2023/07/28 08:50:11;;;;;;;5.63;3.60;;;25.90;10.20;;;;;;5008504;28;20461;-65
2023/07/28 08:52:37;;;;;;;8.57;3.60;;;26.00;10.50;;;;;;5004241;28;20460;-66
2023/07/28 08:55:06;;;;;;;6.73;3.63;;;26.10;10.10;;;;;;4998155;28;20476;-65
2023/07/28 08:57:33;;;;;;;7.53;3.50;;;26.20;10.10;;;;;;4999894;28;20472;-65
2023/07/28 09:00:00;;;;;;;5.77;3.20;;;26.40;10.50;;;;;;5001416;28;20473;-65
2023/07/28 09:02:26;;;;;;;4.60;2.83;;;26.70;9.60;;;;;;5005743;28;20479;-65
2023/07/28 09:04:53;;;;;;;7.87;3.30;;;28.00;8.70;;;;;;5001482;28;20484;-65
2023/07/28 09:07:21;;;;;;;6.47;3.10;;;30.10;5.10;;;;;;5009184;28;20513;-66
2023/07/28 09:09:48;;;;;;;5.07;2.60;;;31.00;2.80;;;;;;5011394;28;20553;-66
2023/07/28 09:12:16;;;;;;;4.80;2.10;;;33.00;1.00;;;;;;5010973;28;20466;-66
2023/07/28 09:14:43;;;;;;;4.30;2.43;;;34.60;1.00;;;;;;5008623;28;20493;-66
2023/07/28 09:17:11;;;;;;;5.83;2.33;;;35.20;1.00;;;;;;5003775;28;21118;-67
2023/07/28 09:19:52;;;;;;;4.50;2.50;;;35.10;1.00;;;;;;5003649;28;21250;-67
2023/07/28 09:22:20;;;;;;;4.43;2.37;;;34.20;1.00;;;;;;4999969;28;20545;-67
2023/07/28 09:24:47;;;;;;;7.73;3.03;;;33.20;1.00;;;;;;5001415;28;20519;-67
2023/07/28 09:27:22;;;;;;;5.10;2.27;;;32.50;1.00;;;;;;5009075;28;20471;-67
2023/07/28 09:29:50;;;;;;;4.37;2.50;;;32.20;1.00;;;;;;5005374;28;20473;-67
2023/07/28 09:32:17;;;;;;;6.93;2.90;;;33.00;1.00;;;;;;5006435;28;20956;-67
2023/07/28 09:34:44;;;;;;;4.73;2.70;;;33.30;1.00;;;;;;5000379;28;20559;-68
2023/07/28 09:37:12;;;;;;;5.27;2.70;;;33.30;1.00;;;;;;5000681;28;20464;-67
2023/07/28 09:39:41;;;;;;;4.53;2.53;;;33.20;1.00;;;;;;5006387;28;20475;-66
2023/07/28 09:42:09;;;;;;;5.20;2.50;;;32.80;1.00;;;;;;5005122;28;20990;-67
2023/07/28 09:44:37;;;;;;;5.80;2.80;;;32.50;1.00;;;;;;4997915;28;20581;-66
2023/07/28 09:47:06;;;;;;;5.63;3.20;;;32.20;1.00;;;;;;5001875;28;20880;-70
2023/07/28 09:49:37;;;;;;;6.97;2.60;;;32.50;1.00;;;;;;5001049;28;20474;-66
2023/07/28 09:52:07;;;;;;;4.73;2.43;;;32.60;1.00;;;;;;5001222;28;21043;-66
2023/07/28 09:54:39;;;;;;;4.90;2.30;;;32.20;1.00;;;;;;5005390;28;20857;-66
2023/07/28 09:57:13;;;;;;;6.00;2.67;;;32.00;1.00;;;;;;5001083;28;20460;-66
2023/07/28 09:59:42;;;;;;;6.33;2.87;;;32.00;1.00;;;;;;5004342;28;20471;-67
2023/07/28 10:02:09;;;;;;;5.10;2.70;;;31.90;1.00;;;;;;5007670;28;20479;-67
2023/07/28 10:04:36;;;;;;;5.00;2.77;;;32.00;1.00;;;;;;5001469;28;21119;-66
2023/07/28 10:07:06;;;;;;;4.47;3.10;;;31.70;1.00;;;;;;5001568;28;20480;-66
2023/07/28 10:09:33;;;;;;;5.37;2.47;;;31.30;1.00;;;;;;5002318;28;20482;-66
2023/07/28 10:12:03;;;;;;;4.50;2.30;;;31.30;1.00;;;;;;5005987;28;20968;-66
2023/07/28 10:14:31;;;;;;;4.47;2.70;;;31.30;1.00;;;;;;5004463;28;20491;-66
2023/07/28 10:17:01;;;;;;;4.30;2.50;;;31.20;1.00;;;;;;5001500;28;20468;-68
2023/07/28 10:19:28;;;;;;;6.20;3.10;;;30.90;1.00;;;;;;5004595;28;21253;-66
2023/07/28 10:22:02;;;;;;;5.77;2.80;;;30.80;1.00;;;;;;5003687;28;20455;-66
2023/07/28 10:24:50;;;;;;;4.20;2.37;;;30.80;1.00;;;;;;5004548;28;20486;-66
2023/07/28 10:27:29;;;;;;;5.50;2.70;;;30.80;1.00;;;;;;5004556;28;20464;-67
2023/07/28 10:30:01;;;;;;;4.37;2.37;;;30.80;1.00;;;;;;5001875;28;20503;-67
2023/07/28 10:32:29;;;;;;;7.93;2.97;;;30.80;1.00;;;;;;5003821;28;20498;-66
2023/07/28 10:35:06;;;;;;;9.87;3.70;;;30.80;1.00;;;;;;4999237;28;20477;-67
2023/07/28 10:37:34;;;;;;;7.67;2.73;;;30.60;1.00;;;;;;5004766;28;20475;-67
2023/07/28 10:40:24;;;;;;;8.30;3.27;;;30.40;1.00;;;;;;5007260;28;20820;-66
2023/07/28 10:42:52;;;;;;;5.53;3.00;;;30.40;1.00;;;;;;5004155;28;20556;-67
2023/07/28 10:45:19;;;;;;;4.13;2.50;;;30.30;1.00;;;;;;5007847;28;20484;-66
2023/07/28 10:47:48;;;;;;;5.10;3.17;;;30.30;1.00;;;;;;5005338;28;20499;-66
2023/07/28 10:50:15;;;;;;;6.00;2.73;;;30.20;1.00;;;;;;4999583;28;20467;-67
2023/07/28 10:52:42;;;;;;;5.77;3.03;;;30.20;1.00;;;;;;5005111;28;20472;-66
2023/07/28 10:55:15;;;;;;;7.37;3.10;;;30.20;1.00;;;;;;5006892;28;20484;-66
2023/07/28 10:57:43;;;;;;;4.20;2.53;;;30.10;1.00;;;;;;5002171;28;20613;-66
2023/07/28 11:00:11;;;;;;;5.40;3.20;;;30.00;1.00;;;;;;5002354;28;20468;-67
2023/07/28 11:02:40;;;;;;;4.70;2.63;;;29.80;1.00;;;;;;5000248;28;20524;-67
2023/07/28 11:05:12;;;;;;;4.70;2.73;;;29.50;1.00;;;;;;4999042;28;20534;-66
2023/07/28 11:07:39;;;;;;;4.40;2.53;;;29.10;1.20;;;;;;5000691;28;20503;-66
2023/07/28 11:10:07;;;;;;;4.80;2.80;;;28.70;1.80;;;;;;4995162;28;20472;-66
2023/07/28 11:12:34;;;;;;;4.70;2.80;;;28.40;1.90;;;;;;5004887;28;20553;-65
2023/07/28 11:15:01;;;;;;;4.93;2.83;;;28.10;3.00;;;;;;5005430;28;20479;-65
2023/07/28 11:17:27;;;;;;;4.70;2.80;;;27.90;3.40;;;;;;5001966;28;20471;-66
2023/07/28 11:19:54;;;;;;;5.40;2.90;;;27.80;3.70;;;;;;5001594;28;20495;-66
2023/07/28 11:22:22;;;;;;;5.40;3.00;;;27.80;3.80;;;;;;5004422;28;20941;-66
2023/07/28 11:24:52;;;;;;;6.60;2.90;;;28.00;4.90;;;;;;5007140;28;20484;-66
2023/07/28 11:27:19;;;;;;;6.20;2.90;;;28.40;4.10;;;;;;5006691;28;20475;-68
2023/07/28 11:29:46;;;;;;;5.43;2.83;;;28.60;4.50;;;;;;5007997;28;20467;-66
2023/07/28 11:32:16;;;;;;;5.03;2.53;;;28.80;3.70;;;;;;5006480;28;20491;-66
2023/07/28 11:34:43;;;;;;;4.47;2.83;;;28.90;2.00;;;;;;5009768;28;20495;-66
2023/07/28 11:37:11;;;;;;;6.50;3.10;;;28.90;2.10;;;;;;5010342;28;21157;-66
2023/07/28 11:39:41;;;;;;;5.10;3.20;;;28.90;1.70;;;;;;5010821;28;20467;-66
2023/07/28 11:42:09;;;;;;;6.43;2.30;;;28.90;1.70;;;;;;5008862;28;20812;-65
2023/07/28 11:44:37;;;;;;;5.17;3.13;;;28.70;2.00;;;;;;5002715;28;20483;-66
2023/07/28 11:47:06;;;;;;;4.70;2.93;;;28.40;2.60;;;;;;5007046;28;20475;-66
2023/07/28 11:49:33;;;;;;;4.93;2.40;;;28.10;2.90;;;;;;5007275;28;20470;-66
2023/07/28 11:52:00;;;;;;;5.90;3.00;;;27.80;3.30;;;;;;5012966;28;20849;-66
2023/07/28 11:54:27;;;;;;;4.97;2.73;;;27.60;4.20;;;;;;5006804;28;22902;-66
2023/07/28 11:56:57;;;;;;;5.93;3.30;;;27.20;5.10;;;;;;5009128;28;20460;-66
2023/07/28 11:59:24;;;;;;;5.70;2.70;;;27.00;6.10;;;;;;5006862;28;20471;-66
2023/07/28 12:01:55;;;;;;;12.23;3.10;;;26.80;6.50;;;;;;5005574;28;20514;-66
2023/07/28 12:04:26;;;;;;;9.87;3.87;;;26.50;6.50;;;;;;5009036;28;20998;-66
2023/07/28 12:07:06;;;;;;;14.10;4.50;;;26.40;8.60;;;;;;4999084;28;20481;-66
2023/07/28 12:09:33;;;;;;;8.07;3.90;;;26.10;11.40;;;;;;5002853;28;20590;-66
2023/07/28 12:12:01;;;;;;;10.03;3.90;;;26.00;12.40;;;;;;5006297;28;21025;-66
2023/07/28 12:14:34;;;;;;;10.80;4.17;;;25.80;14.20;;;;;;5011892;28;21179;-67
2023/07/28 12:17:01;;;;;;;9.83;4.17;;;25.60;15.40;;;;;;5004438;28;20466;-66
2023/07/28 12:19:28;;;;;;;8.60;3.83;;;25.60;16.30;;;;;;5003984;28;20525;-66
2023/07/28 12:21:54;;;;;;;7.23;3.83;;;25.60;16.70;;;;;;5007738;28;20464;-67
2023/07/28 12:24:21;;;;;;;5.93;3.80;;;25.60;16.80;;;;;;5007250;28;20483;-65
2023/07/28 12:26:49;;;;;;;6.47;3.40;;;25.60;16.90;;;;;;5004145;28;20488;-65
2023/07/28 12:29:17;;;;;;;8.07;3.60;;;25.60;16.80;;;;;;5008218;28;20467;-67
2023/07/28 12:31:44;;;;;;;9.00;3.50;;;25.70;16.60;;;;;;5003436;28;20475;-67
2023/07/28 12:34:11;;;;;;;5.27;3.03;;;25.80;16.80;;;;;;5004109;28;20485;-67
2023/07/28 12:36:38;;;;;;;6.33;3.33;;;25.90;17.70;;;;;;5007706;28;20467;-67
2023/07/28 12:39:05;;;;;;;8.90;2.97;;;26.00;17.40;;;;;;5015199;28;20734;-67
2023/07/28 12:41:32;;;;;;;6.33;3.20;;;26.10;17.00;;;;;;5007300;28;20472;-66
2023/07/28 12:43:59;;;;;;;8.03;3.90;;;26.20;16.90;;;;;;5004544;28;20483;-66
2023/07/28 12:46:27;;;;;;;5.60;3.30;;;26.30;16.90;;;;;;5005531;28;20480;-66
2023/07/28 12:48:53;;;;;;;6.53;3.10;;;26.40;16.60;;;;;;5008081;28;20464;-66
2023/07/28 12:51:21;;;;;;;6.10;3.70;;;26.50;16.90;;;;;;5008572;28;20472;-66
2023/07/28 12:53:47;;;;;;;6.83;3.50;;;26.50;16.80;;;;;;5003781;28;20502;-67